createdAt,value
2023-09-28T00:00:27.554Z,10.44
2023-09-28T00:01:23.758Z,10.36
2023-09-28T00:01:57.511Z,10.38
2023-09-28T00:02:31.446Z,10.30
2023-09-28T00:03:07.137Z,10.39
2023-09-28T00:03:41.532Z,10.38
2023-09-28T00:04:15.312Z,10.38
2023-09-28T00:04:48.763Z,10.38
2023-09-28T00:05:22.801Z,10.39
2023-09-28T00:05:56.419Z,10.38
2023-09-28T00:06:30.429Z,10.39
2023-09-28T00:07:04.110Z,10.29
2023-09-28T00:07:37.936Z,10.38
2023-09-28T00:08:11.564Z,10.38
2023-09-28T00:08:45.159Z,10.38
2023-09-28T00:09:18.879Z,10.38
2023-09-28T00:09:52.616Z,10.37
2023-09-28T00:10:26.140Z,10.38
2023-09-28T00:11:00.791Z,10.38
2023-09-28T00:11:34.223Z,10.38
2023-09-28T00:12:07.747Z,10.39
2023-09-28T00:12:51.811Z,10.39
2023-09-28T00:13:25.523Z,10.34
2023-09-28T00:14:01.205Z,10.37
2023-09-28T00:14:38.331Z,10.24
2023-09-28T00:15:13.733Z,10.34
2023-09-28T00:15:48.299Z,10.34
2023-09-28T00:16:21.927Z,10.34
2023-09-28T00:16:56.628Z,10.34
2023-09-28T00:17:30.385Z,10.35
2023-09-28T00:18:05.370Z,10.34
2023-09-28T00:18:38.850Z,10.36
2023-09-28T00:19:12.461Z,10.37
2023-09-28T00:19:45.894Z,10.37
2023-09-28T00:20:21.741Z,10.38
2023-09-28T00:20:55.288Z,10.39
2023-09-28T00:21:28.814Z,10.40
2023-09-28T00:22:02.186Z,10.40
2023-09-28T00:22:36.204Z,10.41
2023-09-28T00:23:09.810Z,10.42
2023-09-28T00:23:43.261Z,10.42
2023-09-28T00:24:16.701Z,10.43
2023-09-28T00:24:50.088Z,10.42
2023-09-28T00:25:24.932Z,10.42
2023-09-28T00:25:58.942Z,10.42
2023-09-28T00:26:32.621Z,10.42
2023-09-28T00:27:07.005Z,10.41
2023-09-28T00:27:41.535Z,10.41
2023-09-28T00:28:15.123Z,10.40
2023-09-28T00:28:49.826Z,10.37
2023-09-28T00:29:23.406Z,10.37
2023-09-28T00:29:57.535Z,10.23
2023-09-28T00:30:31.840Z,10.35
2023-09-28T00:31:06.950Z,10.33
2023-09-28T00:31:40.675Z,10.31
2023-09-28T00:32:14.437Z,10.20
2023-09-28T00:32:49.050Z,10.28
2023-09-28T00:33:22.748Z,10.22
2023-09-28T00:33:56.588Z,10.23
2023-09-28T00:34:30.305Z,10.21
2023-09-28T00:35:05.755Z,10.20
2023-09-28T00:35:40.037Z,10.18
2023-09-28T00:36:13.889Z,10.16
2023-09-28T00:36:47.744Z,10.08
2023-09-28T00:37:21.288Z,10.14
2023-09-28T00:37:55.080Z,10.13
2023-09-28T00:38:28.842Z,10.13
2023-09-28T00:39:02.590Z,10.12
2023-09-28T00:39:36.831Z,10.12
2023-09-28T00:40:22.655Z,10.11
2023-09-28T00:40:56.342Z,10.08
2023-09-28T00:41:30.120Z,10.05
2023-09-28T00:42:06.728Z,10.01
2023-09-28T00:42:40.385Z,10.09
2023-09-28T00:43:13.929Z,10.08
2023-09-28T00:43:47.547Z,10.07
2023-09-28T00:44:21.104Z,10.06
2023-09-28T00:44:54.732Z,10.09
2023-09-28T00:45:29.732Z,10.09
2023-09-28T00:46:04.644Z,10.09
2023-09-28T00:46:39.096Z,10.10
2023-09-28T00:47:13.053Z,10.11
2023-09-28T00:47:47.470Z,10.11
2023-09-28T00:48:21.845Z,10.12
2023-09-28T00:49:06.734Z,10.12
2023-09-28T00:49:40.591Z,10.11
2023-09-28T00:50:17.530Z,10.10
2023-09-28T00:50:53.079Z,10.11
2023-09-28T00:51:29.229Z,10.11
2023-09-28T00:52:02.797Z,10.13
2023-09-28T00:52:42.232Z,10.13
2023-09-28T00:53:16.175Z,10.13
2023-09-28T00:53:49.663Z,10.12
2023-09-28T00:54:23.347Z,10.11
2023-09-28T00:55:00.498Z,10.11
2023-09-28T00:55:34.285Z,9.98
2023-09-28T00:56:09.215Z,10.08
2023-09-28T00:56:43.441Z,10.07
2023-09-28T00:57:19.003Z,10.06
2023-09-28T00:57:53.290Z,10.04
2023-09-28T00:58:26.825Z,10.03
2023-09-28T00:59:01.468Z,10.01
2023-09-28T00:59:35.292Z,9.90
2023-09-28T01:00:25.229Z,9.99
2023-09-28T01:01:01.810Z,9.94
2023-09-28T01:01:35.514Z,9.91
2023-09-28T01:02:09.615Z,9.90
2023-09-28T01:02:44.982Z,9.89
2023-09-28T01:03:18.769Z,9.88
2023-09-28T01:03:52.742Z,9.87
2023-09-28T01:04:27.807Z,9.86
2023-09-28T01:05:01.437Z,9.85
2023-09-28T01:05:35.940Z,9.72
2023-09-28T01:06:09.518Z,9.84
2023-09-28T01:06:43.258Z,9.82
2023-09-28T01:07:27.471Z,9.73
2023-09-28T01:08:13.133Z,9.72
2023-09-28T01:08:46.748Z,9.77
2023-09-28T01:09:20.222Z,9.76
2023-09-28T01:09:54.998Z,9.76
2023-09-28T01:10:30.925Z,9.75
2023-09-28T01:11:06.629Z,9.74
2023-09-28T01:11:42.155Z,9.73
2023-09-28T01:12:16.393Z,9.72
2023-09-28T01:12:50.231Z,9.63
2023-09-28T01:13:25.459Z,9.71
2023-09-28T01:13:59.521Z,9.71
2023-09-28T01:14:34.327Z,9.71
2023-09-28T01:15:12.646Z,9.71
2023-09-28T01:15:50.906Z,9.63
2023-09-28T01:16:25.140Z,9.67
2023-09-28T01:17:00.020Z,9.67
2023-09-28T01:17:34.012Z,9.67
2023-09-28T01:18:18.332Z,9.66
2023-09-28T01:18:52.073Z,9.65
2023-09-28T01:19:25.651Z,9.64
2023-09-28T01:20:01.058Z,9.63
2023-09-28T01:20:39.121Z,9.63
2023-09-28T01:21:12.920Z,9.58
2023-09-28T01:21:46.552Z,9.62
2023-09-28T01:22:20.052Z,9.63
2023-09-28T01:22:55.288Z,9.48
2023-09-28T01:23:28.734Z,9.64
2023-09-28T01:24:04.090Z,9.65
2023-09-28T01:24:38.062Z,9.66
2023-09-28T01:25:12.725Z,9.67
2023-09-28T01:25:48.877Z,9.68
2023-09-28T01:26:23.047Z,9.69
2023-09-28T01:26:56.620Z,9.69
2023-09-28T01:27:30.322Z,9.69
2023-09-28T01:28:05.223Z,9.69
2023-09-28T01:28:39.983Z,9.70
2023-09-28T01:29:13.527Z,9.71
2023-09-28T01:29:47.136Z,9.72
2023-09-28T01:30:20.831Z,9.71
2023-09-28T01:30:54.650Z,9.72
2023-09-28T01:31:29.161Z,9.71
2023-09-28T01:32:03.551Z,9.70
2023-09-28T01:32:37.961Z,9.70
2023-09-28T01:33:11.715Z,9.66
2023-09-28T01:33:45.503Z,9.69
2023-09-28T01:34:19.216Z,9.69
2023-09-28T01:34:52.937Z,9.58
2023-09-28T01:35:28.796Z,9.66
2023-09-28T01:36:02.584Z,9.64
2023-09-28T01:36:36.596Z,9.65
2023-09-28T01:37:10.566Z,9.64
2023-09-28T01:37:52.950Z,9.57
2023-09-28T01:39:02.896Z,9.59
2023-09-28T01:39:36.962Z,9.48
2023-09-28T01:40:11.049Z,9.50
2023-09-28T01:40:45.669Z,9.50
2023-09-28T01:41:19.286Z,9.50
2023-09-28T01:41:52.902Z,9.49
2023-09-28T01:42:26.687Z,9.48
2023-09-28T01:43:00.402Z,9.49
2023-09-28T01:43:36.593Z,9.42
2023-09-28T01:44:10.417Z,9.47
2023-09-28T01:44:44.263Z,9.47
2023-09-28T01:45:18.735Z,9.44
2023-09-28T01:45:52.490Z,9.44
2023-09-28T01:46:26.204Z,9.44
2023-09-28T01:46:59.945Z,9.43
2023-09-28T01:47:33.854Z,9.43
2023-09-28T01:48:08.105Z,9.42
2023-09-28T01:48:41.930Z,9.42
2023-09-28T01:50:44.732Z,9.35
2023-09-28T01:51:18.229Z,9.29
2023-09-28T01:51:51.674Z,9.27
2023-09-28T01:52:25.167Z,9.30
2023-09-28T01:52:58.711Z,9.31
2023-09-28T01:53:32.153Z,9.31
2023-09-28T01:54:06.217Z,9.32
2023-09-28T01:54:39.681Z,9.35
2023-09-28T01:55:13.279Z,9.36
2023-09-28T01:55:48.697Z,9.37
2023-09-28T01:56:22.770Z,9.38
2023-09-28T01:56:56.439Z,9.38
2023-09-28T01:57:30.029Z,9.38
2023-09-28T01:58:09.398Z,9.39
2023-09-28T01:58:42.951Z,9.39
2023-09-28T01:59:16.476Z,9.38
2023-09-28T01:59:49.989Z,9.39
2023-09-28T02:00:26.601Z,9.42
2023-09-28T02:01:00.148Z,9.41
2023-09-28T02:01:33.810Z,9.44
2023-09-28T02:02:07.388Z,9.44
2023-09-28T02:02:41.330Z,9.44
2023-09-28T02:03:16.548Z,9.43
2023-09-28T02:03:50.043Z,9.44
2023-09-28T02:04:24.223Z,9.44
2023-09-28T02:04:58.174Z,9.40
2023-09-28T02:05:34.178Z,9.46
2023-09-28T02:06:07.734Z,9.47
2023-09-28T02:06:41.080Z,9.48
2023-09-28T02:07:15.805Z,9.51
2023-09-28T02:07:50.374Z,9.51
2023-09-28T02:08:23.825Z,9.52
2023-09-28T02:08:57.135Z,9.53
2023-09-28T02:09:30.631Z,9.54
2023-09-28T02:10:06.001Z,9.56
2023-09-28T02:10:39.503Z,9.57
2023-09-28T02:11:13.048Z,9.58
2023-09-28T02:11:46.717Z,9.59
2023-09-28T02:12:20.941Z,9.61
2023-09-28T02:12:54.608Z,9.62
2023-09-28T02:13:28.029Z,9.65
2023-09-28T02:14:01.871Z,9.68
2023-09-28T02:14:35.508Z,9.69
2023-09-28T02:15:11.313Z,9.71
2023-09-28T02:15:44.947Z,9.74
2023-09-28T02:16:18.952Z,9.76
2023-09-28T02:16:52.590Z,9.77
2023-09-28T02:17:26.086Z,9.80
2023-09-28T02:17:59.634Z,9.83
2023-09-28T02:18:33.210Z,9.85
2023-09-28T02:19:07.109Z,9.87
2023-09-28T02:19:40.644Z,9.89
2023-09-28T02:20:17.320Z,9.92
2023-09-28T02:20:51.126Z,9.93
2023-09-28T02:21:24.590Z,9.97
2023-09-28T02:21:58.379Z,9.99
2023-09-28T02:22:31.914Z,10.01
2023-09-28T02:23:05.497Z,10.03
2023-09-28T02:23:38.784Z,10.04
2023-09-28T02:24:12.621Z,10.05
2023-09-28T02:24:48.290Z,10.06
2023-09-28T02:25:25.358Z,10.06
2023-09-28T02:26:06.935Z,10.06
2023-09-28T02:26:40.464Z,10.04
2023-09-28T02:27:14.622Z,10.03
2023-09-28T02:27:49.188Z,10.04
2023-09-28T02:28:22.661Z,10.04
2023-09-28T02:28:56.098Z,10.04
2023-09-28T02:29:29.570Z,10.03
2023-09-28T02:30:04.722Z,10.03
2023-09-28T02:30:38.046Z,10.03
2023-09-28T02:31:11.488Z,10.03
2023-09-28T02:31:45.133Z,10.03
2023-09-28T02:32:18.737Z,10.02
2023-09-28T02:32:53.770Z,10.00
2023-09-28T02:33:27.282Z,9.99
2023-09-28T02:34:00.863Z,9.97
2023-09-28T02:34:34.863Z,9.87
2023-09-28T02:35:08.902Z,9.95
2023-09-28T02:35:42.216Z,9.93
2023-09-28T02:36:16.322Z,9.93
2023-09-28T02:36:49.826Z,9.87
2023-09-28T02:37:23.414Z,9.91
2023-09-28T02:37:57.011Z,9.91
2023-09-28T02:38:30.893Z,9.88
2023-09-28T02:39:08.774Z,9.89
2023-09-28T02:39:42.579Z,9.86
2023-09-28T02:40:17.256Z,9.85
2023-09-28T02:40:50.732Z,9.85
2023-09-28T02:41:24.512Z,9.84
2023-09-28T02:41:57.971Z,9.83
2023-09-28T02:42:31.436Z,9.83
2023-09-28T02:43:04.914Z,9.82
2023-09-28T02:43:38.408Z,9.83
2023-09-28T02:44:11.997Z,9.82
2023-09-28T02:44:45.936Z,9.81
2023-09-28T02:45:19.350Z,9.81
2023-09-28T02:45:53.297Z,9.81
2023-09-28T02:46:27.924Z,9.81
2023-09-28T02:47:01.821Z,9.81
2023-09-28T02:47:35.704Z,9.81
2023-09-28T02:48:09.986Z,9.82
2023-09-28T02:48:43.494Z,9.82
2023-09-28T02:49:16.893Z,9.83
2023-09-28T02:49:50.429Z,9.84
2023-09-28T02:50:23.864Z,9.85
2023-09-28T02:50:57.246Z,9.85
2023-09-28T02:51:30.610Z,9.85
2023-09-28T02:52:07.589Z,9.87
2023-09-28T02:52:42.644Z,9.87
2023-09-28T02:53:16.356Z,9.86
2023-09-28T02:53:50.299Z,9.87
2023-09-28T02:54:23.716Z,9.88
2023-09-28T02:54:57.126Z,9.89
2023-09-28T02:55:30.444Z,9.87
2023-09-28T02:56:07.028Z,9.87
2023-09-28T02:56:40.683Z,9.85
2023-09-28T02:57:14.564Z,9.84
2023-09-28T02:57:49.035Z,9.83
2023-09-28T02:58:23.666Z,9.82
2023-09-28T02:58:58.314Z,9.83
2023-09-28T02:59:32.732Z,9.82
2023-09-28T03:00:25.165Z,9.83
2023-09-28T03:00:59.129Z,9.82
2023-09-28T03:01:32.536Z,9.82
2023-09-28T03:02:06.786Z,9.83
2023-09-28T03:02:40.409Z,9.82
2023-09-28T03:03:13.980Z,9.85
2023-09-28T03:03:47.327Z,9.85
2023-09-28T03:04:20.571Z,9.87
2023-09-28T03:04:54.212Z,9.89
2023-09-28T03:05:29.653Z,9.89
2023-09-28T03:06:05.926Z,9.90
2023-09-28T03:06:41.795Z,9.91
2023-09-28T03:07:15.220Z,9.91
2023-09-28T03:07:49.205Z,9.89
2023-09-28T03:08:25.616Z,9.93
2023-09-28T03:08:58.986Z,9.95
2023-09-28T03:09:34.207Z,9.94
2023-09-28T03:10:08.471Z,9.90
2023-09-28T03:10:46.003Z,9.93
2023-09-28T03:11:19.523Z,9.93
2023-09-28T03:11:52.932Z,9.92
2023-09-28T03:12:26.354Z,9.93
2023-09-28T03:12:59.906Z,9.94
2023-09-28T03:13:33.559Z,9.92
2023-09-28T03:14:09.216Z,9.94
2023-09-28T03:14:43.372Z,9.93
2023-09-28T03:15:17.903Z,9.94
2023-09-28T03:15:51.348Z,9.93
2023-09-28T03:16:24.786Z,9.93
2023-09-28T03:16:58.348Z,9.93
2023-09-28T03:17:31.688Z,9.92
2023-09-28T03:18:05.673Z,9.93
2023-09-28T03:18:39.475Z,9.92
2023-09-28T03:19:12.859Z,9.92
2023-09-28T03:19:46.274Z,9.92
2023-09-28T03:20:20.884Z,9.93
2023-09-28T03:20:54.714Z,9.93
2023-09-28T03:21:31.010Z,9.92
2023-09-28T03:22:04.204Z,9.93
2023-09-28T03:22:37.630Z,9.95
2023-09-28T03:23:10.880Z,9.95
2023-09-28T03:23:44.425Z,9.96
2023-09-28T03:24:17.785Z,9.97
2023-09-28T03:24:51.131Z,9.98
2023-09-28T03:25:24.473Z,9.96
2023-09-28T03:25:57.827Z,9.98
2023-09-28T03:26:31.871Z,9.92
2023-09-28T03:27:10.896Z,9.98
2023-09-28T03:27:46.631Z,9.97
2023-09-28T03:28:20.177Z,9.96
2023-09-28T03:28:53.739Z,9.95
2023-09-28T03:29:27.124Z,9.95
2023-09-28T03:30:00.559Z,9.95
2023-09-28T03:30:34.058Z,9.95
2023-09-28T03:31:07.821Z,9.95
2023-09-28T03:31:41.708Z,9.96
2023-09-28T03:32:15.178Z,9.92
2023-09-28T03:32:49.226Z,9.95
2023-09-28T03:33:22.677Z,9.95
2023-09-28T03:33:56.708Z,9.94
2023-09-28T03:34:30.078Z,9.93
2023-09-28T03:35:05.553Z,9.94
2023-09-28T03:35:38.863Z,9.94
2023-09-28T03:36:14.081Z,9.94
2023-09-28T03:36:47.707Z,9.93
2023-09-28T03:37:21.073Z,9.94
2023-09-28T03:37:55.766Z,9.93
2023-09-28T03:38:29.312Z,9.93
2023-09-28T03:39:02.648Z,9.94
2023-09-28T03:39:36.157Z,9.95
2023-09-28T03:40:12.230Z,9.95
2023-09-28T03:40:46.091Z,9.94
2023-09-28T03:41:19.645Z,9.95
2023-09-28T03:41:53.012Z,9.95
2023-09-28T03:42:27.373Z,9.97
2023-09-28T03:43:00.934Z,9.97
2023-09-28T03:43:34.900Z,9.97
2023-09-28T03:44:08.857Z,9.98
2023-09-28T03:44:42.198Z,9.98
2023-09-28T03:45:17.793Z,9.98
2023-09-28T03:45:51.417Z,9.99
2023-09-28T03:46:25.062Z,9.99
2023-09-28T03:46:58.600Z,10.01
2023-09-28T03:47:34.777Z,10.01
2023-09-28T03:48:08.186Z,10.01
2023-09-28T03:48:41.489Z,10.01
2023-09-28T03:49:14.954Z,10.02
2023-09-28T03:49:48.493Z,10.02
2023-09-28T03:50:24.192Z,10.03
2023-09-28T03:50:58.308Z,10.03
2023-09-28T03:51:31.772Z,10.06
2023-09-28T03:52:05.122Z,10.07
2023-09-28T03:52:39.091Z,10.07
2023-09-28T03:53:12.500Z,10.05
2023-09-28T03:53:45.828Z,10.10
2023-09-28T03:54:19.482Z,10.10
2023-09-28T03:54:53.637Z,10.10
2023-09-28T03:55:26.973Z,10.11
2023-09-28T03:56:00.495Z,10.12
2023-09-28T03:56:34.032Z,10.11
2023-09-28T03:57:07.480Z,10.10
2023-09-28T03:57:42.518Z,10.10
2023-09-28T03:58:17.110Z,10.09
2023-09-28T03:58:53.222Z,10.08
2023-09-28T03:59:26.712Z,10.07
2023-09-28T04:00:00.220Z,10.06
2023-09-28T04:00:33.490Z,10.06
2023-09-28T04:01:09.004Z,10.05
2023-09-28T04:01:46.281Z,10.04
2023-09-28T04:02:19.875Z,10.04
2023-09-28T04:02:55.710Z,10.03
2023-09-28T04:03:29.973Z,10.01
2023-09-28T04:04:06.650Z,10.04
2023-09-28T04:04:40.090Z,10.02
2023-09-28T04:05:13.510Z,10.04
2023-09-28T04:05:46.889Z,10.03
2023-09-28T04:06:20.193Z,10.04
2023-09-28T04:06:53.560Z,10.04
2023-09-28T04:07:26.931Z,10.05
2023-09-28T04:08:00.492Z,10.05
2023-09-28T04:08:33.999Z,10.06
2023-09-28T04:09:09.209Z,10.06
2023-09-28T04:09:42.585Z,10.05
2023-09-28T04:10:16.040Z,10.05
2023-09-28T04:10:51.467Z,10.05
2023-09-28T04:11:24.906Z,10.05
2023-09-28T04:11:58.287Z,10.03
2023-09-28T04:12:31.912Z,10.01
2023-09-28T04:13:05.279Z,10.00
2023-09-28T04:13:38.663Z,9.98
2023-09-28T04:14:12.241Z,9.98
2023-09-28T04:14:45.689Z,9.96
2023-09-28T04:15:19.114Z,9.97
2023-09-28T04:15:52.688Z,9.97
2023-09-28T04:16:26.010Z,9.95
2023-09-28T04:16:59.488Z,9.95
2023-09-28T04:17:35.740Z,9.95
2023-09-28T04:18:09.360Z,9.93
2023-09-28T04:18:42.748Z,9.94
2023-09-28T04:19:16.059Z,9.95
2023-09-28T04:19:50.227Z,9.95
2023-09-28T04:20:23.971Z,9.95
2023-09-28T04:20:57.806Z,9.94
2023-09-28T04:21:31.882Z,9.94
2023-09-28T04:22:05.211Z,9.95
2023-09-28T04:22:38.568Z,9.96
2023-09-28T04:23:14.047Z,9.98
2023-09-28T04:23:47.492Z,9.97
2023-09-28T04:24:20.820Z,9.97
2023-09-28T04:24:54.273Z,9.98
2023-09-28T04:25:30.451Z,9.99
2023-09-28T04:26:06.978Z,9.94
2023-09-28T04:26:41.917Z,10.00
2023-09-28T04:27:19.029Z,10.01
2023-09-28T04:27:53.873Z,10.03
2023-09-28T04:28:27.456Z,10.03
2023-09-28T04:29:00.909Z,10.04
2023-09-28T04:29:34.947Z,9.99
2023-09-28T04:30:10.278Z,10.07
2023-09-28T04:30:44.874Z,10.09
2023-09-28T04:31:18.562Z,10.10
2023-09-28T04:31:52.592Z,10.12
2023-09-28T04:32:26.184Z,10.14
2023-09-28T04:32:59.650Z,10.15
2023-09-28T04:33:33.230Z,10.16
2023-09-28T04:34:08.683Z,10.17
2023-09-28T04:34:42.117Z,10.20
2023-09-28T04:35:15.882Z,10.21
2023-09-28T04:35:51.073Z,10.23
2023-09-28T04:36:25.498Z,10.24
2023-09-28T04:36:59.326Z,10.25
2023-09-28T04:37:32.817Z,10.28
2023-09-28T04:38:06.360Z,10.31
2023-09-28T04:38:39.884Z,10.32
2023-09-28T04:39:13.233Z,10.33
2023-09-28T04:39:46.636Z,10.34
2023-09-28T04:40:25.828Z,10.33
2023-09-28T04:41:02.186Z,10.32
2023-09-28T04:41:35.875Z,10.29
2023-09-28T04:42:09.265Z,10.28
2023-09-28T04:42:43.930Z,10.28
2023-09-28T04:43:17.336Z,10.28
2023-09-28T04:43:50.706Z,10.28
2023-09-28T04:44:24.846Z,10.26
2023-09-28T04:44:58.286Z,10.21
2023-09-28T04:45:31.636Z,10.28
2023-09-28T04:46:06.880Z,10.27
2023-09-28T04:46:40.265Z,10.31
2023-09-28T04:47:14.266Z,10.33
2023-09-28T04:47:48.620Z,10.34
2023-09-28T04:48:22.758Z,10.35
2023-09-28T04:48:56.432Z,10.38
2023-09-28T04:49:29.805Z,10.40
2023-09-28T04:50:05.014Z,10.43
2023-09-28T04:50:38.500Z,10.45
2023-09-28T04:51:12.121Z,10.47
2023-09-28T04:51:45.896Z,10.50
2023-09-28T04:52:19.450Z,10.53
2023-09-28T04:52:52.790Z,10.55
2023-09-28T04:53:26.415Z,10.57
2023-09-28T04:54:04.223Z,10.59
2023-09-28T04:54:38.078Z,10.63
2023-09-28T04:55:11.852Z,10.64
2023-09-28T04:55:45.204Z,10.67
2023-09-28T04:56:19.369Z,10.70
2023-09-28T04:56:52.908Z,10.73
2023-09-28T04:57:26.930Z,10.75
2023-09-28T04:58:00.398Z,10.78
2023-09-28T04:58:33.854Z,10.79
2023-09-28T04:59:07.334Z,10.82
2023-09-28T04:59:41.751Z,10.84
2023-09-28T05:00:17.968Z,10.86
2023-09-28T05:00:51.689Z,10.89
2023-09-28T05:01:25.350Z,10.91
2023-09-28T05:01:58.938Z,10.92
2023-09-28T05:02:32.308Z,10.98
2023-09-28T05:03:06.310Z,11.00
2023-09-28T05:03:39.738Z,11.03
2023-09-28T05:04:14.469Z,11.05
2023-09-28T05:04:47.890Z,11.09
2023-09-28T05:05:21.691Z,11.12
2023-09-28T05:05:56.677Z,11.14
2023-09-28T05:06:30.122Z,11.17
2023-09-28T05:07:04.289Z,11.19
2023-09-28T05:07:37.741Z,11.21
2023-09-28T05:08:13.766Z,11.24
2023-09-28T05:08:47.499Z,11.27
2023-09-28T05:09:20.816Z,11.30
2023-09-28T05:09:54.225Z,11.33
2023-09-28T05:10:27.864Z,11.35
2023-09-28T05:11:01.263Z,11.39
2023-09-28T05:11:34.707Z,11.42
2023-09-28T05:12:08.251Z,11.46
2023-09-28T05:12:41.603Z,11.50
2023-09-28T05:13:15.480Z,11.53
2023-09-28T05:13:49.333Z,11.54
2023-09-28T05:14:25.578Z,11.58
2023-09-28T05:14:59.043Z,11.60
2023-09-28T05:15:32.533Z,11.63
2023-09-28T05:16:05.986Z,11.64
2023-09-28T05:16:39.335Z,11.64
2023-09-28T05:17:12.773Z,11.65
2023-09-28T05:17:46.375Z,11.65
2023-09-28T05:18:19.739Z,11.67
2023-09-28T05:18:53.150Z,11.66
2023-09-28T05:19:27.231Z,11.65
2023-09-28T05:20:00.647Z,11.63
2023-09-28T05:20:34.242Z,11.65
2023-09-28T05:21:07.600Z,11.66
2023-09-28T05:21:41.091Z,11.67
2023-09-28T05:22:14.701Z,11.66
2023-09-28T05:22:48.108Z,11.68
2023-09-28T05:23:21.749Z,11.69
2023-09-28T05:23:55.336Z,11.69
2023-09-28T05:24:28.918Z,11.70
2023-09-28T05:25:02.655Z,11.71
2023-09-28T05:25:36.185Z,11.73
2023-09-28T05:26:09.719Z,11.74
2023-09-28T05:26:43.603Z,11.76
2023-09-28T05:27:17.014Z,11.76
2023-09-28T05:27:50.751Z,11.79
2023-09-28T05:28:24.233Z,11.80
2023-09-28T05:28:59.735Z,11.81
2023-09-28T05:29:33.071Z,11.81
2023-09-28T05:30:07.254Z,11.79
2023-09-28T05:30:40.659Z,11.81
2023-09-28T05:31:14.196Z,11.82
2023-09-28T05:31:48.617Z,11.83
2023-09-28T05:32:22.265Z,11.84
2023-09-28T05:32:55.844Z,11.85
2023-09-28T05:33:29.310Z,11.86
2023-09-28T05:34:02.689Z,11.87
2023-09-28T05:34:36.745Z,11.88
2023-09-28T05:35:10.464Z,11.89
2023-09-28T05:35:44.105Z,11.90
2023-09-28T05:36:17.447Z,11.92
2023-09-28T05:36:50.782Z,11.95
2023-09-28T05:37:24.199Z,11.95
2023-09-28T05:37:57.631Z,11.92
2023-09-28T05:38:31.024Z,11.94
2023-09-28T05:39:04.886Z,11.94
2023-09-28T05:39:39.052Z,11.95
2023-09-28T05:40:13.163Z,11.97
2023-09-28T05:40:46.543Z,11.97
2023-09-28T05:41:20.042Z,11.99
2023-09-28T05:41:53.510Z,12.01
2023-09-28T05:42:26.866Z,12.04
2023-09-28T05:43:00.366Z,12.06
2023-09-28T05:43:33.762Z,12.07
2023-09-28T05:44:11.211Z,12.11
2023-09-28T05:44:46.385Z,12.14
2023-09-28T05:45:19.907Z,12.13
2023-09-28T05:45:53.351Z,12.13
2023-09-28T05:46:27.192Z,12.14
2023-09-28T05:47:01.299Z,12.15
2023-09-28T05:47:36.220Z,12.19
2023-09-28T05:48:09.740Z,12.24
2023-09-28T05:48:43.200Z,12.25
2023-09-28T05:49:17.811Z,12.23
2023-09-28T05:49:53.674Z,12.19
2023-09-28T05:50:27.145Z,12.21
2023-09-28T05:51:00.584Z,12.26
2023-09-28T05:51:34.596Z,12.21
2023-09-28T05:52:07.978Z,12.18
2023-09-28T05:52:41.705Z,12.17
2023-09-28T05:53:15.091Z,12.17
2023-09-28T05:53:49.175Z,12.16
2023-09-28T05:54:22.805Z,12.16
2023-09-28T05:54:56.106Z,12.18
2023-09-28T05:55:29.482Z,12.16
2023-09-28T05:56:04.759Z,12.17
2023-09-28T05:56:38.044Z,12.17
2023-09-28T05:57:11.747Z,12.19
2023-09-28T05:57:45.235Z,12.19
2023-09-28T05:58:18.800Z,12.20
2023-09-28T05:58:52.294Z,12.23
2023-09-28T05:59:25.989Z,12.25
2023-09-28T05:59:59.500Z,12.28
2023-09-28T06:00:32.911Z,12.30
2023-09-28T06:01:09.503Z,12.30
2023-09-28T06:01:43.183Z,12.34
2023-09-28T06:02:16.688Z,12.38
2023-09-28T06:02:50.124Z,12.41
2023-09-28T06:03:23.730Z,12.45
2023-09-28T06:03:57.587Z,12.47
2023-09-28T06:04:31.192Z,12.48
2023-09-28T06:05:04.811Z,12.49
2023-09-28T06:05:38.433Z,12.52
2023-09-28T06:06:19.445Z,12.54
2023-09-28T06:06:53.134Z,12.56
2023-09-28T06:07:26.601Z,12.58
2023-09-28T06:08:01.359Z,12.61
2023-09-28T06:08:35.146Z,12.64
2023-09-28T06:09:08.650Z,12.67
2023-09-28T06:09:42.831Z,12.68
2023-09-28T06:10:18.995Z,12.71
2023-09-28T06:11:06.656Z,12.73
2023-09-28T06:11:47.342Z,12.76
2023-09-28T06:12:20.720Z,12.76
2023-09-28T06:12:54.167Z,12.78
2023-09-28T06:13:27.671Z,12.82
2023-09-28T06:14:08.279Z,12.85
2023-09-28T06:14:42.041Z,12.87
2023-09-28T06:15:15.522Z,12.87
2023-09-28T06:15:49.082Z,12.91
2023-09-28T06:16:22.651Z,12.99
2023-09-28T06:16:56.324Z,13.05
2023-09-28T06:17:29.936Z,13.10
2023-09-28T06:18:03.677Z,13.16
2023-09-28T06:18:37.563Z,13.23
2023-09-28T06:19:13.551Z,13.28
2023-09-28T06:20:29.112Z,13.38
2023-09-28T06:21:02.630Z,13.46
2023-09-28T06:21:36.812Z,13.51
2023-09-28T06:22:11.155Z,13.57
2023-09-28T06:22:44.721Z,13.63
2023-09-28T06:23:18.554Z,13.68
2023-09-28T06:23:52.140Z,13.73
2023-09-28T06:24:26.952Z,13.79
2023-09-28T06:25:00.531Z,13.83
2023-09-28T06:25:34.153Z,13.87
2023-09-28T06:26:07.848Z,13.93
2023-09-28T06:26:43.772Z,13.97
2023-09-28T06:27:17.486Z,14.00
2023-09-28T06:27:51.128Z,14.04
2023-09-28T06:28:27.657Z,14.07
2023-09-28T06:29:01.792Z,14.11
2023-09-28T06:29:35.574Z,14.15
2023-09-28T06:30:09.742Z,14.19
2023-09-28T06:30:43.274Z,14.23
2023-09-28T06:31:20.302Z,14.27
2023-09-28T06:31:53.824Z,14.31
2023-09-28T06:32:27.490Z,14.32
2023-09-28T06:33:01.226Z,14.40
2023-09-28T06:33:34.847Z,14.39
2023-09-28T06:34:08.867Z,14.49
2023-09-28T06:34:42.325Z,14.54
2023-09-28T06:35:15.981Z,14.59
2023-09-28T06:35:49.689Z,14.64
2023-09-28T06:36:41.273Z,14.68
2023-09-28T06:37:16.418Z,14.74
2023-09-28T06:37:51.212Z,14.79
2023-09-28T06:38:24.746Z,14.83
2023-09-28T06:38:58.221Z,14.88
2023-09-28T06:39:31.799Z,14.93
2023-09-28T06:40:05.727Z,14.98
2023-09-28T06:40:49.965Z,15.04
2023-09-28T06:41:23.950Z,15.09
2023-09-28T06:42:05.521Z,15.11
2023-09-28T06:42:46.405Z,15.17
2023-09-28T06:43:19.975Z,15.22
2023-09-28T06:43:53.493Z,15.22
2023-09-28T06:44:28.304Z,15.30
2023-09-28T06:45:01.812Z,15.34
2023-09-28T06:45:35.498Z,15.36
2023-09-28T06:46:09.965Z,15.42
2023-09-28T06:46:46.208Z,15.48
2023-09-28T06:47:19.622Z,15.51
2023-09-28T06:48:05.109Z,15.52
2023-09-28T06:48:48.404Z,15.59
2023-09-28T06:49:22.067Z,15.61
2023-09-28T06:49:55.606Z,15.65
2023-09-28T06:50:30.639Z,15.71
2023-09-28T06:51:04.152Z,15.78
2023-09-28T06:51:38.759Z,15.80
2023-09-28T06:52:12.474Z,15.83
2023-09-28T06:52:45.952Z,15.86
2023-09-28T06:53:19.684Z,15.94
2023-09-28T06:53:53.211Z,15.97
2023-09-28T06:54:26.795Z,15.99
2023-09-28T06:55:00.172Z,16.00
2023-09-28T06:55:33.712Z,16.05
2023-09-28T06:56:14.504Z,16.11
2023-09-28T06:56:51.402Z,16.12
2023-09-28T06:57:24.891Z,16.17
2023-09-28T06:57:58.757Z,16.16
2023-09-28T06:58:32.216Z,16.17
2023-09-28T06:59:05.568Z,16.20
2023-09-28T06:59:39.169Z,16.21
2023-09-28T07:00:18.361Z,16.23
2023-09-28T07:00:52.077Z,16.25
2023-09-28T07:01:25.622Z,16.27
2023-09-28T07:01:59.055Z,16.30
2023-09-28T07:02:32.859Z,16.31
2023-09-28T07:03:06.887Z,16.34
2023-09-28T07:03:40.438Z,16.37
2023-09-28T07:04:13.767Z,16.38
2023-09-28T07:04:47.180Z,16.41
2023-09-28T07:05:20.797Z,16.44
2023-09-28T07:05:54.216Z,16.47
2023-09-28T07:06:27.735Z,16.47
2023-09-28T07:07:01.278Z,16.52
2023-09-28T07:07:34.966Z,16.49
2023-09-28T07:08:08.394Z,16.55
2023-09-28T07:08:41.791Z,16.60
2023-09-28T07:09:15.222Z,16.61
2023-09-28T07:09:56.940Z,16.63
2023-09-28T07:10:30.459Z,16.63
2023-09-28T07:11:04.005Z,16.72
2023-09-28T07:11:37.501Z,16.77
2023-09-28T07:12:12.007Z,16.81
2023-09-28T07:12:45.428Z,16.78
2023-09-28T07:13:18.772Z,16.76
2023-09-28T07:13:52.423Z,16.72
2023-09-28T07:14:25.855Z,16.72
2023-09-28T07:14:59.644Z,16.75
2023-09-28T07:15:34.518Z,16.74
2023-09-28T07:16:09.487Z,16.85
2023-09-28T07:16:43.316Z,16.83
2023-09-28T07:17:16.852Z,16.78
2023-09-28T07:17:50.580Z,16.79
2023-09-28T07:18:24.121Z,16.77
2023-09-28T07:18:57.693Z,16.77
2023-09-28T07:19:31.197Z,16.81
2023-09-28T07:20:05.351Z,16.82
2023-09-28T07:20:38.982Z,16.76
2023-09-28T07:21:12.432Z,16.73
2023-09-28T07:21:45.929Z,16.71
2023-09-28T07:22:22.293Z,16.76
2023-09-28T07:22:56.032Z,16.77
2023-09-28T07:23:29.428Z,16.77
2023-09-28T07:24:16.672Z,16.92
2023-09-28T07:24:52.264Z,16.85
2023-09-28T07:25:29.213Z,16.81
2023-09-28T07:26:02.779Z,16.83
2023-09-28T07:26:36.855Z,16.83
2023-09-28T07:27:10.388Z,16.87
2023-09-28T07:27:45.146Z,16.90
2023-09-28T07:28:18.555Z,16.88
2023-09-28T07:28:54.893Z,16.88
2023-09-28T07:29:29.238Z,16.88
2023-09-28T07:30:07.083Z,16.89
2023-09-28T07:30:40.460Z,16.91
2023-09-28T07:31:14.787Z,16.95
2023-09-28T07:31:49.074Z,16.98